Time;durP1;ratioP1;P1;durP2;ratioP2;P2;SDS_P1;SDS_P2;PMS_P1;PMS_P2;Temp;Humidity;BMP_temperature;BMP_pressure;BME280_temperature;BME280_humidity;BME280_pressure;Samples;Min_cycle;Max_cycle;Signal;HPM_P1;HPM_P2
2021/03/08 00:01:51;;;;;;;25.55;19.67;;;3.20;99.90;;;2.98;75.32;101897.00;4219585;28;20040;-77
2021/03/08 00:03:52;;;;;;;30.95;20.63;;;3.20;99.90;;;2.96;74.50;101898.81;4219449;28;20477;-78
2021/03/08 00:05:53;;;;;;;24.95;18.95;;;3.20;99.90;;;3.01;74.61;101902.06;4219622;28;20039;-78
2021/03/08 00:07:54;;;;;;;23.02;17.90;;;3.20;99.90;;;2.75;75.44;101890.34;4218175;28;20024;-78
2021/03/08 00:09:55;;;;;;;24.17;19.13;;;3.20;99.90;;;2.73;76.26;101896.56;4219431;28;20020;-77
2021/03/08 00:11:56;;;;;;;24.95;19.75;;;3.10;99.90;;;2.73;75.96;101896.56;4219301;28;20073;-78
2021/03/08 00:13:57;;;;;;;25.88;20.42;;;3.20;99.90;;;2.64;76.79;101897.88;4218029;28;20020;-78
2021/03/08 00:15:58;;;;;;;23.05;19.27;;;3.10;99.90;;;2.65;76.23;101881.34;4218192;28;20024;-78
2021/03/08 00:17:59;;;;;;;26.60;18.55;;;3.00;99.90;;;2.73;75.87;101896.56;4218007;28;20035;-77
2021/03/08 00:20:00;;;;;;;32.13;21.08;;;3.00;99.90;;;2.69;76.04;101900.22;4217999;28;20111;-77
2021/03/08 00:22:01;;;;;;;24.33;20.65;;;3.10;99.90;;;2.62;75.74;101899.72;4219529;28;20053;-78
2021/03/08 00:24:03;;;;;;;25.45;20.10;;;3.10;99.90;;;2.67;76.11;101891.66;4219293;28;20024;-78
2021/03/08 00:26:03;;;;;;;25.83;19.67;;;3.10;99.90;;;2.72;75.65;101906.13;4219352;28;20059;-78
2021/03/08 00:28:04;;;;;;;25.52;19.42;;;3.10;99.90;;;2.75;76.16;101902.53;4217739;28;20522;-78
2021/03/08 00:30:07;;;;;;;26.35;20.55;;;3.00;99.90;;;2.55;76.49;101897.47;4218933;28;20024;-78
2021/03/08 00:32:10;;;;;;;25.15;18.45;;;3.00;99.90;;;2.48;77.13;101890.91;4212218;28;20480;-77
2021/03/08 00:34:11;;;;;;;25.58;19.63;;;3.00;99.90;;;2.60;76.67;101893.72;4213077;28;20032;-78
2021/03/08 00:36:12;;;;;;;25.83;19.33;;;2.90;99.90;;;2.54;76.50;101896.63;4218917;28;20077;-77
2021/03/08 00:38:13;;;;;;;25.52;19.10;;;2.90;99.90;;;2.42;77.20;101891.22;4217733;28;20032;-78
2021/03/08 00:40:18;;;;;;;28.73;20.77;;;2.90;99.90;;;2.46;77.45;101879.72;4218986;28;20031;-77
2021/03/08 00:42:19;;;;;;;26.10;20.65;;;2.90;99.90;;;2.30;77.69;101881.41;4218820;28;20047;-78
2021/03/08 00:44:20;;;;;;;27.10;19.77;;;2.90;99.90;;;2.28;78.10;101898.84;4218560;28;20024;-77
2021/03/08 00:46:21;;;;;;;26.80;20.67;;;2.90;99.90;;;2.19;78.53;101879.31;4218792;28;20069;-77
2021/03/08 00:48:22;;;;;;;24.27;19.13;;;2.90;99.90;;;2.27;78.11;101886.75;4217692;28;20056;-77
2021/03/08 00:50:27;;;;;;;24.95;19.50;;;2.80;99.90;;;2.32;78.03;101887.38;4211357;28;20024;-78
2021/03/08 00:52:28;;;;;;;25.20;19.05;;;2.90;99.90;;;2.37;77.54;101901.00;4216302;28;20062;-78
2021/03/08 00:54:29;;;;;;;26.30;19.88;;;2.80;99.90;;;2.03;78.00;101860.16;4218826;28;20024;-78
2021/03/08 00:56:30;;;;;;;25.23;20.45;;;2.70;99.90;;;2.18;77.93;101873.25;4218880;28;20020;-78
2021/03/08 00:58:31;;;;;;;25.77;19.95;;;2.70;99.90;;;2.23;78.02;101881.72;4217378;28;20932;-77
2021/03/08 01:00:32;;;;;;;27.10;22.10;;;2.80;99.90;;;2.22;78.05;101876.56;4214685;28;20047;-77
2021/03/08 01:02:33;;;;;;;23.58;18.92;;;2.70;99.90;;;2.20;78.50;101871.44;4187836;28;20028;-77
2021/03/08 01:04:34;;;;;;;27.77;18.80;;;2.70;99.90;;;2.05;78.87;101874.78;4208126;28;20020;-77
2021/03/08 01:06:35;;;;;;;25.52;20.23;;;2.70;99.90;;;2.09;78.92;101876.31;4218730;28;20202;-77
2021/03/08 01:08:36;;;;;;;27.50;19.55;;;2.70;99.90;;;2.12;78.98;101889.16;4217162;28;20028;-77
2021/03/08 01:10:37;;;;;;;25.67;20.30;;;2.70;99.90;;;2.19;78.41;101882.75;4205633;28;20024;-78
2021/03/08 01:12:38;;;;;;;27.27;19.83;;;2.70;99.90;;;1.96;79.31;101858.78;4218592;28;20081;-77
2021/03/08 01:14:39;;;;;;;24.65;20.77;;;2.70;99.90;;;1.73;79.11;101833.03;4218325;28;20020;-77
2021/03/08 01:16:40;;;;;;;25.67;20.00;;;2.70;99.90;;;1.84;79.82;101878.41;4218256;28;20053;-77
2021/03/08 01:18:41;;;;;;;26.73;20.13;;;2.70;99.90;;;1.72;80.14;101857.34;4218575;28;20032;-77
2021/03/08 01:20:42;;;;;;;23.60;19.75;;;2.70;99.90;;;1.76;80.29;101870.13;4218427;28;20035;-78
2021/03/08 01:22:44;;;;;;;26.10;20.05;;;2.30;99.90;;;1.81;80.87;101875.97;4218388;28;20070;-77
2021/03/08 01:24:45;;;;;;;28.10;20.40;;;2.60;99.90;;;1.68;80.43;101886.09;4218339;28;20088;-77
2021/03/08 01:26:46;;;;;;;25.33;20.67;;;2.50;99.90;;;1.84;80.48;101875.81;4250878;27;20023;-77
2021/03/08 01:28:47;;;;;;;26.75;19.83;;;2.60;99.90;;;1.71;80.30;101858.25;4218179;28;20031;-78
2021/03/08 01:30:48;;;;;;;25.42;19.02;;;2.50;99.90;;;1.83;80.66;101881.06;4218475;28;20492;-77
2021/03/08 01:32:50;;;;;;;26.55;21.10;;;2.50;99.90;;;1.80;81.10;101863.84;4218325;28;20375;-77
2021/03/08 01:34:50;;;;;;;27.55;20.38;;;2.50;99.90;;;1.80;80.54;101876.00;4218001;28;20024;-78
2021/03/08 01:36:51;;;;;;;25.75;21.17;;;2.50;99.90;;;1.79;81.49;101875.19;4218286;28;20051;-77
2021/03/08 01:38:52;;;;;;;25.17;19.67;;;2.30;99.90;;;1.87;80.49;101875.66;4218119;28;20020;-77
2021/03/08 01:40:53;;;;;;;28.10;20.80;;;2.40;99.90;;;1.78;80.81;101878.72;4218116;28;20024;-78
2021/03/08 01:42:55;;;;;;;26.95;20.17;;;2.50;99.90;;;1.73;81.02;101875.50;4216940;28;20111;-78
2021/03/08 01:44:56;;;;;;;26.42;20.83;;;2.50;99.90;;;1.68;81.37;101885.25;4207243;28;20021;-78
2021/03/08 01:46:57;;;;;;;26.98;20.65;;;2.50;99.90;;;1.73;81.46;101872.03;4217932;28;20043;-77
2021/03/08 01:48:58;;;;;;;28.05;20.90;;;2.50;99.90;;;1.73;81.46;101870.28;4218071;28;20044;-77
2021/03/08 01:50:59;;;;;;;25.00;19.45;;;2.50;99.90;;;1.78;81.31;101867.44;4218148;28;20024;-77
2021/03/08 01:53:02;;;;;;;32.83;20.92;;;2.40;99.90;;;1.68;81.87;101869.63;4218116;28;20028;-78
2021/03/08 01:55:05;;;;;;;26.48;20.27;;;2.40;99.90;;;1.56;81.78;101862.41;4217969;28;20016;-77
2021/03/08 01:57:07;;;;;;;29.83;20.48;;;2.40;99.90;;;1.74;81.09;101861.53;4217889;28;20032;-77
2021/03/08 01:59:08;;;;;;;26.27;19.63;;;2.40;99.90;;;1.72;81.29;101857.34;4217626;28;20487;-77
2021/03/08 02:01:09;;;;;;;25.73;19.70;;;2.40;99.90;;;1.76;81.30;101870.13;4216924;28;20036;-77
2021/03/08 02:03:10;;;;;;;24.00;19.25;;;2.30;99.90;;;1.62;81.34;101856.91;4209191;28;20141;-77
2021/03/08 02:05:16;;;;;;;28.73;22.13;;;2.40;99.90;;;1.63;81.65;101853.41;4213760;28;20035;-78
2021/03/08 02:07:17;;;;;;;29.40;20.58;;;2.40;99.90;;;1.66;81.29;101863.66;4217667;28;20046;-77
2021/03/08 02:09:18;;;;;;;29.95;20.50;;;2.40;99.90;;;1.84;81.16;101862.81;4217939;28;20064;-77
2021/03/08 02:11:19;;;;;;;27.70;20.80;;;2.40;99.90;;;1.80;80.79;101858.66;4217984;28;20020;-77
2021/03/08 02:13:48;;;;;;;24.30;19.10;;;2.40;99.90;;;1.81;80.63;101855.16;4217617;28;20028;-77
2021/03/08 02:16:30;;;;;;;26.85;21.02;;;2.30;99.90;;;1.67;81.24;101847.97;4218029;28;20047;-77
2021/03/08 02:18:58;;;;;;;26.85;20.00;;;2.30;99.90;;;1.87;81.71;101851.41;4216445;28;20055;-78
2021/03/08 02:21:36;;;;;;;24.00;20.60;;;2.40;99.90;;;1.87;79.79;101838.41;4217825;28;20091;-77
2021/03/08 02:24:16;;;;;;;25.02;20.48;;;2.40;99.90;;;1.81;81.20;101852.53;4215683;28;20564;-76
2021/03/08 02:26:38;;;;;;;27.90;20.73;;;2.40;99.90;;;1.69;81.12;101847.94;4213883;28;20066;-77
2021/03/08 02:28:45;;;;;;;27.17;20.02;;;2.40;99.90;;;1.75;81.11;101845.03;4216091;28;20028;-77
2021/03/08 02:30:49;;;;;;;23.63;19.88;;;2.40;99.90;;;1.54;81.65;101833.88;4212399;28;20032;-77
2021/03/08 02:32:53;;;;;;;32.05;21.98;;;2.30;99.90;;;1.41;82.96;101837.13;4219620;28;20028;-77
2021/03/08 02:35:14;;;;;;;27.67;21.80;;;2.30;99.90;;;1.54;82.22;101839.09;4219205;28;20035;-78
2021/03/08 02:37:25;;;;;;;26.95;21.00;;;2.30;99.90;;;1.50;82.50;101837.53;4213110;28;20031;-77
2021/03/08 02:39:32;;;;;;;26.48;20.10;;;2.30;99.90;;;1.61;82.47;101831.84;4220913;28;20421;-77
2021/03/08 02:41:35;;;;;;;27.08;21.05;;;2.30;99.90;;;1.42;82.82;101831.84;4220938;28;20028;-77
2021/03/08 02:43:44;;;;;;;37.38;22.23;;;2.30;99.90;;;1.47;82.78;101836.84;4219230;28;20024;-77
2021/03/08 02:45:49;;;;;;;27.13;21.05;;;2.20;99.90;;;1.43;83.42;101835.31;4219247;28;20501;-76
2021/03/08 02:47:51;;;;;;;28.95;22.70;;;2.30;99.90;;;1.35;83.05;101821.78;4218424;28;20522;-77
2021/03/08 02:49:55;;;;;;;32.22;23.63;;;2.20;99.90;;;1.39;83.25;101823.34;4210001;28;20028;-78
2021/03/08 02:52:09;;;;;;;30.20;23.33;;;2.20;99.90;;;1.40;82.97;101809.44;4220895;28;20577;-77
2021/03/08 02:54:12;;;;;;;27.05;20.27;;;2.20;99.90;;;1.49;82.60;101811.63;4219298;28;20396;-77
2021/03/08 02:56:22;;;;;;;26.42;21.02;;;2.20;99.90;;;1.43;83.31;101814.50;4219220;28;20028;-77
2021/03/08 02:58:25;;;;;;;32.03;23.15;;;2.20;99.90;;;1.43;83.21;101817.09;4211499;28;20028;-77
2021/03/08 03:00:28;;;;;;;32.88;22.20;;;2.20;99.90;;;1.31;83.72;101815.06;4215600;28;20024;-77
2021/03/08 03:02:29;;;;;;;31.48;22.35;;;2.10;99.90;;;1.34;83.29;101813.19;4219233;28;20034;-77
2021/03/08 03:04:31;;;;;;;28.02;22.65;;;2.10;99.90;;;1.42;83.55;101810.22;4210121;28;20028;-77
2021/03/08 03:06:36;;;;;;;36.65;22.20;;;2.10;99.90;;;1.39;83.27;101810.34;4219239;28;20085;-78
2021/03/08 03:08:39;;;;;;;27.63;22.13;;;2.10;99.90;;;1.46;83.60;101816.97;4202307;28;20036;-77
2021/03/08 03:10:41;;;;;;;30.25;22.45;;;2.10;99.90;;;1.43;83.03;101801.50;4206446;28;20494;-77
2021/03/08 03:12:44;;;;;;;33.40;22.48;;;2.10;99.90;;;1.55;82.75;101812.16;4219446;28;20032;-77
2021/03/08 03:14:48;;;;;;;21.17;16.77;;;2.10;99.90;;;1.41;82.78;101814.56;4212995;28;20016;-78
2021/03/08 03:16:55;;;;;;;29.80;21.77;;;2.10;99.90;;;1.49;84.09;101809.03;4216645;28;20027;-77
2021/03/08 03:18:58;;;;;;;27.35;20.88;;;2.10;99.90;;;1.57;82.28;101806.91;4218858;28;20032;-77
2021/03/08 03:21:03;;;;;;;30.23;22.58;;;2.10;99.90;;;1.49;82.65;101796.03;4210993;28;20528;-77
2021/03/08 03:23:05;;;;;;;29.83;21.73;;;2.10;99.90;;;1.58;82.72;101811.19;4215959;28;20112;-78
2021/03/08 03:25:08;;;;;;;30.98;23.80;;;2.00;99.90;;;1.57;81.79;101807.75;4220072;28;20016;-77
2021/03/08 03:27:09;;;;;;;30.20;21.70;;;2.10;99.90;;;1.59;82.23;101815.47;4218965;28;20054;-77
2021/03/08 03:29:13;;;;;;;28.55;21.10;;;2.10;99.90;;;1.53;82.73;101816.59;4211354;28;20541;-78
2021/03/08 03:31:17;;;;;;;29.48;21.40;;;2.10;99.90;;;1.61;82.72;101816.25;4214941;28;20036;-77
2021/03/08 03:33:18;;;;;;;26.27;20.83;;;2.10;99.90;;;1.65;81.71;101812.56;4218721;28;20119;-78
2021/03/08 03:35:24;;;;;;;30.73;23.15;;;2.00;99.90;;;1.53;82.73;101816.59;4208787;28;20020;-77
2021/03/08 03:37:27;;;;;;;28.65;22.88;;;2.00;99.90;;;1.53;82.68;101797.53;4218860;28;20031;-77
2021/03/08 03:39:30;;;;;;;29.27;22.80;;;2.10;99.90;;;1.61;83.26;101824.06;4206282;28;20104;-78
2021/03/08 03:41:32;;;;;;;29.30;21.45;;;2.00;99.90;;;1.52;82.81;101816.69;4201626;28;20029;-78
2021/03/08 03:43:35;;;;;;;30.60;22.88;;;1.90;99.90;;;1.59;81.35;101805.06;4218527;28;20028;-77
2021/03/08 03:45:36;;;;;;;28.55;21.75;;;2.00;99.90;;;1.84;81.49;101815.97;4218628;28;20081;-78
2021/03/08 03:47:39;;;;;;;30.33;22.85;;;2.00;99.90;;;1.85;81.32;101817.66;4218282;28;20473;-78
2021/03/08 03:49:40;;;;;;;29.65;23.63;;;2.10;99.90;;;1.75;81.75;101815.56;4218773;28;20024;-77
2021/03/08 03:51:41;;;;;;;29.05;22.45;;;2.00;99.90;;;1.59;81.79;101810.25;4211310;28;20046;-78
2021/03/08 03:53:42;;;;;;;28.38;22.23;;;2.10;99.90;;;1.80;81.30;101824.84;4212787;28;20028;-78
2021/03/08 03:55:43;;;;;;;30.73;22.42;;;2.00;99.90;;;1.75;81.13;101832.03;4217118;28;20601;-77
2021/03/08 03:58:27;;;;;;;28.08;22.70;;;2.10;99.90;;;1.51;81.07;101802.84;4219882;28;20028;-78
2021/03/08 04:00:34;;;;;;;28.55;22.30;;;2.00;99.90;;;1.72;80.65;101841.72;4217357;28;20069;-77
2021/03/08 04:02:49;;;;;;;28.40;22.02;;;2.00;99.90;;;1.54;81.13;101815.69;4207168;28;20024;-77
2021/03/08 04:05:02;;;;;;;26.58;21.20;;;2.00;99.90;;;1.60;81.39;101838.81;4218275;28;20562;-77
2021/03/08 04:07:06;;;;;;;27.90;21.75;;;2.00;99.90;;;1.62;81.35;101839.56;4215183;28;20163;-77
2021/03/08 04:09:11;;;;;;;28.65;21.33;;;2.00;99.90;;;1.42;82.45;101833.59;4206649;28;20450;-77
2021/03/08 04:11:14;;;;;;;31.92;23.42;;;0.90;99.90;;;1.44;82.45;101848.22;4219592;28;20036;-78
2021/03/08 04:13:16;;;;;;;33.53;23.17;;;1.90;99.90;;;1.50;82.38;101837.53;4219120;28;20534;-78
2021/03/08 04:15:19;;;;;;;30.80;23.08;;;1.80;99.90;;;1.37;82.59;101838.19;4217986;28;20066;-77
2021/03/08 04:17:21;;;;;;;29.25;22.02;;;1.90;99.90;;;1.26;82.92;101814.41;4208867;28;20074;-78
2021/03/08 04:19:29;;;;;;;27.52;22.30;;;1.90;99.90;;;1.32;82.49;101814.13;4218202;28;20111;-77
2021/03/08 04:21:37;;;;;;;30.88;22.13;;;1.90;99.90;;;1.49;82.40;101820.25;4214898;28;20074;-78
2021/03/08 04:23:40;;;;;;;30.40;22.98;;;1.90;99.90;;;1.48;82.24;101825.53;4217866;28;20039;-77
2021/03/08 04:25:47;;;;;;;26.65;20.48;;;2.00;99.90;;;1.49;82.62;101815.03;4209169;28;20024;-77
2021/03/08 04:27:50;;;;;;;33.17;23.95;;;2.00;99.90;;;1.52;81.63;101814.91;4196511;28;20029;-77
2021/03/08 04:29:53;;;;;;;27.52;21.50;;;2.00;99.90;;;1.47;81.84;101810.84;4217700;28;20017;-78
2021/03/08 04:31:54;;;;;;;32.35;22.25;;;1.90;99.90;;;1.63;81.04;101838.66;4217840;28;20063;-78
2021/03/08 04:33:56;;;;;;;32.05;24.02;;;1.90;99.90;;;1.57;82.04;101853.69;4226015;28;20470;-77
2021/03/08 04:35:59;;;;;;;29.15;22.23;;;1.90;99.90;;;1.56;82.11;101850.25;4212751;28;20024;-77
2021/03/08 04:38:00;;;;;;;30.15;22.38;;;1.90;99.90;;;1.59;81.46;101831.06;4217236;28;20088;-78
2021/03/08 04:40:03;;;;;;;29.45;23.15;;;1.90;99.90;;;1.55;81.47;101837.34;4217853;28;20028;-78
2021/03/08 04:42:07;;;;;;;30.42;22.23;;;1.80;99.90;;;1.62;81.67;101844.75;4209685;28;20032;-78
2021/03/08 04:44:09;;;;;;;30.17;22.77;;;1.90;99.90;;;1.59;80.34;101846.66;4214303;28;20051;-77
2021/03/08 04:46:10;;;;;;;29.88;22.08;;;1.90;99.90;;;1.50;81.52;101831.50;4251483;27;20031;-77
2021/03/08 04:48:11;;;;;;;29.73;22.08;;;1.90;99.90;;;1.51;81.45;101812.38;4217672;28;20028;-78
2021/03/08 04:50:15;;;;;;;29.30;22.35;;;2.00;99.90;;;1.41;82.21;101824.97;4211146;28;20043;-77
2021/03/08 04:52:21;;;;;;;30.95;22.65;;;1.90;99.90;;;1.54;81.48;101838.25;4216884;28;20048;-77
2021/03/08 04:54:22;;;;;;;30.67;22.60;;;1.90;99.90;;;1.57;81.56;101841.53;4217050;28;20515;-77
2021/03/08 04:56:23;;;;;;;29.67;23.60;;;1.90;99.90;;;1.56;81.13;101849.41;4206884;28;20498;-77
2021/03/08 04:58:24;;;;;;;29.67;22.73;;;1.90;99.90;;;1.32;82.31;101847.94;4217258;28;20024;-77
2021/03/08 05:00:26;;;;;;;30.33;22.30;;;1.80;99.90;;;1.41;82.13;101831.91;4218458;28;20403;-77
2021/03/08 05:02:28;;;;;;;38.28;22.45;;;1.80;99.90;;;1.54;82.55;101846.03;4217283;28;20027;-78
2021/03/08 05:04:30;;;;;;;28.30;21.70;;;1.90;99.90;;;1.60;81.61;101835.34;4206875;28;20056;-78
2021/03/08 05:06:38;;;;;;;30.27;23.27;;;1.80;99.90;;;1.48;83.08;101843.72;4210327;28;20070;-78
2021/03/08 05:08:42;;;;;;;31.70;23.38;;;1.90;99.90;;;1.56;82.63;101839.00;4218512;28;20051;-76
2021/03/08 05:10:43;;;;;;;27.98;22.52;;;2.10;99.90;;;1.53;82.48;101844.34;4217456;28;20047;-77
2021/03/08 05:12:45;;;;;;;32.95;23.15;;;1.80;99.90;;;1.49;81.73;101840.22;4208234;28;20081;-77
2021/03/08 05:14:47;;;;;;;29.85;22.33;;;1.80;99.90;;;1.68;81.57;101854.03;4211354;28;20020;-78
2021/03/08 05:16:50;;;;;;;29.10;21.90;;;1.90;99.90;;;1.55;81.23;101853.75;4217224;28;20114;-77
2021/03/08 05:18:51;;;;;;;29.27;23.05;;;1.90;99.90;;;1.66;82.21;101848.06;4218555;28;20025;-77
2021/03/08 05:20:53;;;;;;;31.52;23.55;;;1.90;99.90;;;1.52;82.71;101855.69;4218385;28;20028;-78
2021/03/08 05:22:55;;;;;;;34.03;24.92;;;1.90;99.90;;;1.54;82.28;101856.44;4217255;28;20085;-77
2021/03/08 05:24:56;;;;;;;34.28;23.02;;;1.90;99.90;;;1.46;82.63;101845.56;4214792;28;20119;-77
2021/03/08 05:26:58;;;;;;;34.85;24.05;;;1.90;99.90;;;1.49;82.36;101856.63;4204604;28;20024;-77
2021/03/08 05:29:00;;;;;;;32.92;24.30;;;1.90;99.90;;;1.52;82.22;101858.28;4200092;28;20483;-77
2021/03/08 05:31:02;;;;;;;33.28;23.58;;;1.80;99.90;;;1.51;82.24;101865.22;4211248;28;20027;-78
2021/03/08 05:33:23;;;;;;;31.23;23.00;;;1.90;99.90;;;1.30;81.92;101858.41;4200378;28;20388;-78
2021/03/08 05:35:26;;;;;;;29.15;22.45;;;1.80;99.90;;;1.30;83.50;101868.81;4207701;28;20471;-77
2021/03/08 05:37:28;;;;;;;30.67;23.52;;;1.70;99.90;;;1.29;83.42;101874.06;4217113;28;20056;-78
2021/03/08 05:39:29;;;;;;;33.97;24.52;;;1.60;99.90;;;1.45;82.36;101857.72;4215602;28;20387;-77
2021/03/08 05:42:04;;;;;;;33.60;24.90;;;1.70;99.90;;;1.51;83.48;101856.59;4217222;28;20039;-77
2021/03/08 05:44:07;;;;;;;32.30;23.10;;;1.80;99.90;;;1.37;83.11;101864.19;4212892;28;20028;-77
2021/03/08 05:46:39;;;;;;;32.05;24.95;;;1.80;99.90;;;1.43;82.92;101877.75;4217549;28;20028;-77
2021/03/08 05:49:01;;;;;;;34.55;23.85;;;1.80;99.90;;;1.53;82.44;101872.94;4218147;28;20024;-77
2021/03/08 05:51:32;;;;;;;32.30;25.27;;;1.80;99.90;;;1.55;82.26;101871.97;4218238;28;20085;-78
2021/03/08 05:54:02;;;;;;;30.45;22.00;;;1.80;99.90;;;1.51;82.58;101875.63;4218108;28;20041;-77
2021/03/08 05:56:20;;;;;;;30.52;23.55;;;2.00;99.90;;;1.51;82.32;101870.44;4218229;28;20028;-77
2021/03/08 05:59:06;;;;;;;29.48;22.75;;;1.80;99.90;;;1.44;82.63;101879.41;4218074;28;20024;-78
2021/03/08 06:01:28;;;;;;;32.20;23.30;;;1.80;99.90;;;1.36;83.47;101885.88;4210284;28;20093;-77
2021/03/08 06:04:11;;;;;;;33.30;23.73;;;1.70;99.90;;;1.40;83.46;101893.50;4219030;28;20106;-78
2021/03/08 06:06:30;;;;;;;33.97;25.85;;;1.70;99.90;;;1.52;81.85;101886.88;4218096;28;20024;-77
2021/03/08 06:09:09;;;;;;;28.95;21.92;;;1.70;99.90;;;1.44;83.15;101883.75;4217811;28;20497;-77
2021/03/08 06:11:12;;;;;;;31.00;23.58;;;1.70;99.90;;;1.40;83.44;101890.03;4221512;28;20111;-77
2021/03/08 06:13:21;;;;;;;34.10;24.63;;;2.10;99.90;;;1.38;82.55;101878.84;4219996;28;20031;-77
2021/03/08 06:15:25;;;;;;;32.38;23.88;;;1.70;99.90;;;1.49;82.20;101885.25;4218515;28;20024;-77
2021/03/08 06:17:29;;;;;;;34.97;24.58;;;1.60;99.90;;;1.49;82.61;101884.41;4209468;28;20103;-77
2021/03/08 06:19:31;;;;;;;30.65;23.13;;;1.80;99.90;;;1.42;82.74;101902.03;4219896;28;20032;-78
2021/03/08 06:21:33;;;;;;;32.75;24.35;;;1.70;99.90;;;1.40;83.34;101893.50;4217768;28;20035;-77
2021/03/08 06:23:36;;;;;;;37.25;24.23;;;1.60;99.90;;;1.23;83.77;101889.94;4221253;28;20032;-77
2021/03/08 06:25:39;;;;;;;38.53;24.73;;;1.60;99.90;;;1.29;83.09;101889.66;4220032;28;20054;-77
2021/03/08 06:27:46;;;;;;;29.92;22.95;;;1.70;99.90;;;1.35;83.74;101886.78;4213702;28;20514;-78
2021/03/08 06:29:47;;;;;;;33.03;25.70;;;1.60;99.90;;;1.35;82.78;101887.63;4217437;28;20441;-78
2021/03/08 06:31:49;;;;;;;31.67;24.60;;;1.60;99.90;;;1.35;83.20;101895.44;4219994;28;20020;-77
2021/03/08 06:33:49;;;;;;;34.22;23.70;;;1.70;99.90;;;1.21;83.10;101866.63;4221050;28;20172;-77
2021/03/08 06:35:52;;;;;;;33.97;23.40;;;1.70;99.90;;;1.47;82.72;101892.28;4220961;28;20035;-78
2021/03/08 06:37:55;;;;;;;31.63;23.33;;;1.70;99.90;;;1.43;82.52;101897.69;4219630;28;20067;-77
2021/03/08 06:39:56;;;;;;;31.08;24.05;;;1.70;99.90;;;1.40;83.11;101897.84;4218846;28;20065;-77
2021/03/08 06:41:59;;;;;;;33.95;24.48;;;1.70;99.90;;;1.44;82.85;101896.75;4211874;28;20028;-78
2021/03/08 06:44:03;;;;;;;25.15;19.75;;;1.70;99.90;;;1.35;83.04;101903.22;4220594;28;20039;-77
2021/03/08 06:46:04;;;;;;;35.47;23.40;;;1.70;99.90;;;1.38;82.35;101891.84;4220639;28;20028;-77
2021/03/08 06:48:06;;;;;;;31.98;23.25;;;1.70;99.90;;;1.32;83.48;101892.13;4253268;27;20513;-78
2021/03/08 06:50:07;;;;;;;32.70;23.80;;;1.70;99.90;;;1.35;83.91;101907.56;4219443;28;20016;-78
2021/03/08 06:52:13;;;;;;;31.67;23.30;;;1.60;99.90;;;1.31;83.93;101911.25;4215718;28;20042;-77
2021/03/08 06:54:18;;;;;;;31.95;23.30;;;1.60;99.90;;;1.54;82.13;101916.25;4220709;28;20020;-77
2021/03/08 06:56:26;;;;;;;;;;;1.60;99.90;;;1.49;82.83;101907.81;4221284;28;20115;-77
2021/03/08 06:58:27;;;;;;;30.42;22.60;;;1.70;99.90;;;1.44;81.83;101888.97;4219210;28;19914;-77
2021/03/08 07:00:32;;;;;;;32.30;23.52;;;1.80;99.90;;;1.48;81.90;101913.91;4220650;28;20021;-77
2021/03/08 07:02:45;;;;;;;30.00;24.13;;;1.80;99.90;;;1.28;82.69;101880.19;4220722;28;20023;-78
2021/03/08 07:04:46;;;;;;;29.42;22.90;;;1.70;99.90;;;1.50;82.06;101917.28;4220657;28;20039;-77
2021/03/08 07:07:06;;;;;;;33.85;24.23;;;1.80;99.90;;;1.47;81.67;101930.44;4220586;28;20028;-77
2021/03/08 07:09:14;;;;;;;32.40;25.08;;;1.80;99.90;;;1.43;82.33;101908.09;4220679;28;20024;-77
2021/03/08 07:11:24;;;;;;;33.65;24.23;;;1.80;99.90;;;1.51;83.15;101922.44;4219504;28;20027;-78
2021/03/08 07:13:32;;;;;;;33.05;24.30;;;1.80;99.90;;;1.60;82.66;101921.16;4220266;28;20478;-78
2021/03/08 07:15:33;;;;;;;30.88;24.05;;;1.90;99.90;;;1.67;81.81;101926.00;4219865;28;20115;-77
2021/03/08 07:17:37;;;;;;;33.03;23.23;;;2.00;99.90;;;1.51;82.17;101911.19;4220532;28;20509;-78
2021/03/08 07:19:58;;;;;;;32.05;24.98;;;2.00;99.90;;;1.74;80.63;101923.13;4220494;28;20486;-77
2021/03/08 07:21:59;;;;;;;35.67;24.00;;;2.00;99.90;;;1.70;80.92;101909.44;4219248;28;20040;-77
2021/03/08 07:24:16;;;;;;;30.67;23.73;;;2.10;99.90;;;1.75;81.82;101927.41;4220274;28;20020;-78
2021/03/08 07:26:21;;;;;;;31.63;23.38;;;2.10;99.90;;;1.79;80.61;101916.81;4220278;28;20111;-78
2021/03/08 07:28:22;;;;;;;31.35;23.67;;;2.10;99.90;;;1.87;80.07;101913.84;4220031;28;20554;-78
2021/03/08 07:30:30;;;;;;;30.48;22.13;;;2.20;99.90;;;1.96;80.49;101929.88;4220257;28;20073;-77
2021/03/08 07:32:31;;;;;;;31.00;24.33;;;2.30;99.90;;;1.84;80.83;101927.84;4192172;28;20495;-78
2021/03/08 07:34:46;;;;;;;30.27;22.65;;;2.30;99.90;;;1.89;80.79;101928.47;4198847;28;20101;-78
2021/03/08 07:37:02;;;;;;;32.47;23.88;;;2.30;99.90;;;1.92;81.13;101948.28;4208404;28;20075;-78
2021/03/08 07:39:16;;;;;;;29.60;22.00;;;2.40;99.90;;;1.91;81.49;101947.44;4220062;28;20040;-78
2021/03/08 07:41:21;;;;;;;30.67;23.08;;;2.30;99.90;;;1.95;80.93;101949.00;4220036;28;20115;-78
2021/03/08 07:43:24;;;;;;;31.80;23.13;;;2.40;99.90;;;1.93;81.74;101937.81;4219911;28;20031;-78
2021/03/08 07:45:42;;;;;;;34.33;24.67;;;2.40;99.90;;;2.29;79.16;101952.59;4220159;28;20504;-78
2021/03/08 07:47:43;;;;;;;31.73;23.02;;;2.50;99.90;;;2.29;80.08;101948.25;4219558;28;20051;-78
2021/03/08 07:49:45;;;;;;;30.20;23.17;;;2.60;99.90;;;2.12;80.58;101950.81;4218923;28;20027;-78
2021/03/08 07:52:09;;;;;;;31.52;23.23;;;2.60;99.90;;;2.49;78.25;101952.47;4211605;28;20028;-77
2021/03/08 07:54:10;;;;;;;32.50;23.92;;;2.70;99.90;;;2.39;78.81;101953.84;4219817;28;20024;-78
2021/03/08 07:56:11;;;;;;;31.73;23.90;;;2.80;99.90;;;2.45;80.57;101958.78;4219821;28;20487;-77
2021/03/08 07:58:15;;;;;;;32.15;23.27;;;2.80;99.90;;;2.58;79.44;101954.63;4219468;28;20079;-78
2021/03/08 08:00:17;;;;;;;29.50;23.67;;;2.90;99.90;;;2.31;80.25;101941.19;4219819;28;20074;-78
2021/03/08 08:02:18;;;;;;;34.30;24.90;;;2.90;99.90;;;2.47;79.22;101957.78;4219443;28;20024;-78
2021/03/08 08:04:19;;;;;;;28.92;22.77;;;3.00;99.90;;;2.48;79.63;101958.63;4219812;28;20067;-78
2021/03/08 08:06:26;;;;;;;34.65;23.92;;;2.90;99.90;;;2.60;79.84;101960.59;4201591;28;20399;-77
2021/03/08 08:08:30;;;;;;;31.30;24.02;;;3.00;99.90;;;2.70;78.23;101967.06;4222299;28;20031;-78
2021/03/08 08:10:31;;;;;;;30.85;23.40;;;3.00;99.90;;;2.66;78.53;101968.97;4217972;28;20028;-78
2021/03/08 08:12:34;;;;;;;34.42;23.70;;;3.20;99.90;;;2.72;79.13;101963.44;4218469;28;20034;-78
2021/03/08 08:14:39;;;;;;;32.53;22.92;;;3.20;99.90;;;2.82;78.88;101958.63;4212345;28;20024;-78
2021/03/08 08:16:43;;;;;;;32.88;24.00;;;3.30;99.90;;;2.89;78.00;101957.41;4217882;28;20024;-78
2021/03/08 08:18:47;;;;;;;29.58;23.02;;;3.30;99.90;;;2.81;79.00;101948.31;4218047;28;20487;-78
2021/03/08 08:20:52;;;;;;;34.13;24.73;;;3.40;99.90;;;2.80;79.19;101965.69;4208995;28;20042;-78
2021/03/08 08:22:57;;;;;;;31.92;23.50;;;3.40;99.90;;;2.74;79.36;101955.56;4212861;28;20111;-78
2021/03/08 08:25:01;;;;;;;36.08;26.52;;;3.50;99.90;;;2.75;78.51;101946.81;4217941;28;20062;-78
2021/03/08 08:27:02;;;;;;;32.42;24.50;;;3.50;99.90;;;2.43;80.13;101960.59;4205530;28;20114;-78
2021/03/08 08:29:04;;;;;;;30.60;24.27;;;3.60;99.90;;;2.73;79.29;101974.72;4209939;28;20039;-78
2021/03/08 08:31:05;;;;;;;31.00;23.58;;;3.60;99.90;;;2.83;79.78;101975.09;4219145;28;20024;-78
2021/03/08 08:33:06;;;;;;;32.83;24.77;;;3.60;99.90;;;2.46;79.98;101935.25;4218904;28;20031;-78
2021/03/08 08:35:27;;;;;;;32.70;23.85;;;3.60;99.90;;;2.76;79.83;101977.16;4218152;28;20372;-78
2021/03/08 08:37:28;;;;;;;33.03;24.92;;;3.70;99.90;;;2.81;79.63;101982.16;4212997;28;20383;-78
2021/03/08 08:39:28;;;;;;;31.65;24.35;;;3.80;99.90;;;2.70;79.96;101982.69;4219017;28;20039;-78
2021/03/08 08:41:32;;;;;;;34.17;25.10;;;3.70;99.90;;;2.81;79.81;101983.00;4219223;28;20039;-78
2021/03/08 08:43:33;;;;;;;37.80;24.33;;;3.80;99.90;;;2.74;79.14;101977.25;4218923;28;20032;-78